Time;durP1;ratioP1;P1;durP2;ratioP2;P2;SDS_P1;SDS_P2;PMS_P1;PMS_P2;Temp;Humidity;BMP_temperature;BMP_pressure;BME280_temperature;BME280_humidity;BME280_pressure;Samples;Min_cycle;Max_cycle;Signal;HPM_P1;HPM_P2
2022/05/22 00:00:19;;;;;;;2.55;0.77;;;;;;;;;;5035637;28;20025;-82
2022/05/22 00:02:46;;;;;;;3.30;0.85;;;;;;;;;;5035679;28;20148;-82
2022/05/22 00:05:15;;;;;;;0.80;0.80;;;;;;;;;;5034361;28;20033;-82
2022/05/22 00:07:41;;;;;;;1.45;0.95;;;;;;;;;;5035633;28;20053;-82
2022/05/22 00:10:06;;;;;;;0.82;0.82;;;;;;;;;;5035501;28;20076;-82
2022/05/22 00:12:32;;;;;;;1.42;1.10;;;;;;;;;;5035785;28;20033;-82
2022/05/22 00:14:57;;;;;;;1.67;1.10;;;;;;;;;;5050147;28;20044;-82
2022/05/22 00:17:23;;;;;;;1.35;1.10;;;;;;;;;;5034236;28;20037;-82
2022/05/22 00:19:48;;;;;;;1.05;0.82;;;;;;;;;;5035605;28;20026;-82
2022/05/22 00:22:13;;;;;;;3.05;1.10;;;;;;;;;;5035215;28;20468;-82
2022/05/22 00:24:39;;;;;;;1.45;0.90;;;;;;;;;;5034030;28;20025;-82
2022/05/22 00:27:04;;;;;;;0.80;0.80;;;;;;;;;;5035187;28;20060;-82
2022/05/22 00:29:33;;;;;;;1.23;0.73;;;;;;;;;;5034328;28;20044;-81
2022/05/22 00:31:59;;;;;;;1.00;0.90;;;;;;;;;;5035409;28;20049;-82
2022/05/22 00:34:24;;;;;;;1.30;0.90;;;;;;;;;;5033820;28;20452;-82
2022/05/22 00:36:50;;;;;;;1.77;0.90;;;;;;;;;;5033775;28;20041;-81
2022/05/22 00:39:16;;;;;;;1.83;0.90;;;;;;;;;;5050327;28;20595;-82
2022/05/22 00:41:46;;;;;;;1.83;1.00;;;;;;;;;;5034862;28;20053;-82
2022/05/22 00:44:11;;;;;;;0.98;0.77;;;;;;;;;;5033746;28;20041;-82
2022/05/22 00:46:36;;;;;;;0.82;0.82;;;;;;;;;;5035099;28;20041;-82
2022/05/22 00:49:05;;;;;;;1.67;1.00;;;;;;;;;;5050148;28;20068;-82
2022/05/22 00:51:33;;;;;;;1.80;0.90;;;;;;;;;;5033488;28;20033;-82
2022/05/22 00:54:06;;;;;;;1.58;0.90;;;;;;;;;;5033237;28;20060;-82
2022/05/22 00:56:35;;;;;;;1.42;0.93;;;;;;;;;;5034951;28;20455;-82
2022/05/22 00:59:01;;;;;;;1.20;1.10;;;;;;;;;;5049985;28;20029;-82
2022/05/22 01:01:27;;;;;;;2.70;1.15;;;;;;;;;;5034475;28;20034;-82
2022/05/22 01:03:53;;;;;;;2.58;0.88;;;;;;;;;;5050090;28;20033;-81
2022/05/22 01:06:24;;;;;;;1.60;0.82;;;;;;;;;;5034779;28;20037;-82
2022/05/22 01:08:50;;;;;;;2.20;0.90;;;;;;;;;;5033185;28;20033;-82
2022/05/22 01:11:16;;;;;;;1.20;1.00;;;;;;;;;;5033103;28;20361;-81
2022/05/22 01:13:43;;;;;;;1.60;0.98;;;;;;;;;;5049673;28;20045;-82
2022/05/22 01:16:08;;;;;;;1.75;0.80;;;;;;;;;;5033047;28;20030;-82
2022/05/22 01:18:48;;;;;;;1.33;1.02;;;;;;;;;;5049577;28;20482;-82
2022/05/22 01:21:19;;;;;;;1.38;1.02;;;;;;;;;;5032860;28;20066;-82
2022/05/22 01:23:44;;;;;;;;;;;;;;;;;;5033351;28;20095;-82
2022/05/22 01:26:19;;;;;;;0.88;0.88;;;;;;;;;;5032656;28;19905;-82
2022/05/22 01:28:44;;;;;;;1.42;1.00;;;;;;;;;;5049457;28;20121;-81
2022/05/22 01:31:12;;;;;;;1.08;1.00;;;;;;;;;;5033065;28;20033;-82
2022/05/22 01:33:38;;;;;;;1.88;1.00;;;;;;;;;;5033622;28;20033;-82
2022/05/22 01:36:04;;;;;;;1.58;0.98;;;;;;;;;;5032980;28;20124;-82
2022/05/22 01:38:30;;;;;;;3.08;0.98;;;;;;;;;;5032939;28;20548;-82
2022/05/22 01:40:55;;;;;;;1.30;1.00;;;;;;;;;;5049121;28;20129;-82
2022/05/22 01:43:36;;;;;;;2.33;1.20;;;;;;;;;;5049142;28;20372;-81
2022/05/22 01:46:07;;;;;;;1.27;1.02;;;;;;;;;;5049236;28;20391;-81
2022/05/22 01:48:33;;;;;;;2.97;1.27;;;;;;;;;;5034058;28;20038;-81
2022/05/22 01:50:59;;;;;;;1.70;1.30;;;;;;;;;;5049123;28;20041;-81
2022/05/22 01:53:26;;;;;;;1.38;1.27;;;;;;;;;;5032602;28;20041;-81
2022/05/22 01:55:51;;;;;;;1.60;1.27;;;;;;;;;;5034019;28;20503;-81
2022/05/22 01:58:18;;;;;;;2.25;1.50;;;;;;;;;;5049251;28;20483;-81
2022/05/22 02:00:44;;;;;;;1.30;1.20;;;;;;;;;;5032423;28;20055;-81
2022/05/22 02:03:09;;;;;;;1.35;0.95;;;;;;;;;;5049268;28;20041;-81
2022/05/22 02:05:35;;;;;;;1.73;1.00;;;;;;;;;;5033882;28;20029;-81
2022/05/22 02:08:22;;;;;;;2.03;1.15;;;;;;;;;;5032332;28;20037;-81
2022/05/22 02:10:57;;;;;;;1.20;1.10;;;;;;;;;;5033604;28;20041;-81
2022/05/22 02:13:28;;;;;;;2.33;1.30;;;;;;;;;;5032277;28;20120;-81
2022/05/22 02:15:54;;;;;;;4.22;1.30;;;;;;;;;;5033808;28;20033;-81
2022/05/22 02:18:19;;;;;;;2.63;1.45;;;;;;;;;;5032243;28;20432;-81
2022/05/22 02:20:45;;;;;;;1.48;1.20;;;;;;;;;;5049354;28;20041;-81
2022/05/22 02:23:11;;;;;;;1.55;1.42;;;;;;;;;;5032232;28;20075;-81
2022/05/22 02:25:37;;;;;;;1.60;1.50;;;;;;;;;;5048800;28;20037;-81
2022/05/22 02:28:07;;;;;;;1.58;1.48;;;;;;;;;;5033437;28;20029;-81
2022/05/22 02:30:35;;;;;;;1.52;1.40;;;;;;;;;;5041238;23;20070;-77
2022/05/22 02:33:00;;;;;;;1.63;1.52;;;;;;;;;;5013929;28;20033;-77
2022/05/22 02:35:30;;;;;;;3.03;1.80;;;;;;;;;;5012599;28;20041;-77
2022/05/22 02:38:05;;;;;;;2.20;2.00;;;;;;;;;;5015089;28;20041;-77
2022/05/22 02:40:42;;;;;;;2.83;2.40;;;;;;;;;;5016393;28;20042;-77
2022/05/22 02:43:08;;;;;;;3.83;2.75;;;;;;;;;;5016098;28;20030;-77
2022/05/22 02:45:34;;;;;;;3.13;2.92;;;;;;;;;;5016684;28;20049;-77
2022/05/22 02:48:05;;;;;;;3.17;2.83;;;;;;;;;;5016042;28;20038;-77
2022/05/22 02:50:30;;;;;;;4.25;2.90;;;;;;;;;;5015984;28;20041;-77
2022/05/22 02:53:06;;;;;;;3.88;3.58;;;;;;;;;;5015953;28;20064;-77
2022/05/22 02:55:47;;;;;;;4.03;3.47;;;;;;;;;;5016355;28;20077;-77
2022/05/22 02:58:12;;;;;;;4.70;4.15;;;;;;;;;;5015946;28;20399;-77
2022/05/22 03:00:39;;;;;;;4.07;3.75;;;;;;;;;;5016011;28;20034;-77
2022/05/22 03:03:05;;;;;;;4.30;3.90;;;;;;;;;;4999497;28;20068;-77
2022/05/22 03:06:38;;;;;;;5.47;4.40;;;;;;;;;;5015721;28;20053;-77
2022/05/22 03:08:16;;;;;;;5.88;4.22;;;;;;;;;;5015555;28;20404;-77
2022/05/22 03:10:42;;;;;;;5.07;4.32;;;;;;;;;;5015726;28;20025;-77
2022/05/22 03:13:08;;;;;;;6.03;4.57;;;;;;;;;;5015520;28;20045;-77
2022/05/22 03:15:35;;;;;;;8.55;4.03;;;;;;;;;;5015528;28;20041;-77
2022/05/22 03:18:00;;;;;;;4.35;3.92;;;;;;;;;;5015511;28;20041;-77
2022/05/22 03:20:26;;;;;;;4.60;4.20;;;;;;;;;;5016889;28;20034;-77
2022/05/22 03:22:51;;;;;;;5.10;4.20;;;;;;;;;;4999088;28;20037;-77
2022/05/22 03:25:16;;;;;;;6.35;4.18;;;;;;;;;;4999036;28;20037;-77
2022/05/22 03:27:42;;;;;;;5.63;3.97;;;;;;;;;;4998989;28;20092;-77
2022/05/22 03:30:07;;;;;;;3.80;3.50;;;;;;;;;;5022855;28;20037;-77
2022/05/22 03:32:33;;;;;;;4.25;3.75;;;;;;;;;;5035385;28;20112;-77
2022/05/22 03:35:00;;;;;;;4.10;3.70;;;;;;;;;;5034965;28;20092;-77
2022/05/22 03:37:26;;;;;;;6.03;4.07;;;;;;;;;;5035202;28;20025;-77
2022/05/22 03:39:52;;;;;;;4.85;3.50;;;;;;;;;;5034862;28;20047;-77
2022/05/22 03:42:17;;;;;;;5.13;4.00;;;;;;;;;;5034774;28;20092;-77
2022/05/22 03:44:43;;;;;;;3.85;3.35;;;;;;;;;;5034816;28;20391;-77
2022/05/22 03:47:09;;;;;;;5.65;3.45;;;;;;;;;;5034781;28;20083;-77
2022/05/22 03:49:47;;;;;;;5.35;3.75;;;;;;;;;;5034905;28;20369;-77
2022/05/22 03:52:12;;;;;;;5.35;4.20;;;;;;;;;;5034660;28;20045;-77
2022/05/22 03:54:38;;;;;;;5.15;3.60;;;;;;;;;;5034881;28;20126;-77
2022/05/22 03:57:09;;;;;;;5.50;3.83;;;;;;;;;;5034836;28;20034;-77
2022/05/22 03:59:37;;;;;;;5.25;3.15;;;;;;;;;;5034833;28;20041;-77
2022/05/22 04:02:03;;;;;;;4.38;3.17;;;;;;;;;;5034425;28;20079;-77
2022/05/22 04:04:30;;;;;;;4.72;2.78;;;;;;;;;;5035568;28;20030;-77
2022/05/22 04:06:58;;;;;;;3.40;3.00;;;;;;;;;;5034940;28;20387;-77
2022/05/22 04:09:27;;;;;;;3.78;2.90;;;;;;;;;;5034340;28;20030;-77
2022/05/22 04:12:11;;;;;;;5.45;3.10;;;;;;;;;;5020743;28;20033;-77
2022/05/22 04:14:38;;;;;;;4.15;2.70;;;;;;;;;;5034217;28;20037;-76
2022/05/22 04:17:06;;;;;;;3.55;2.42;;;;;;;;;;5034216;28;20103;-76
2022/05/22 04:19:32;;;;;;;4.25;2.58;;;;;;;;;;5034431;28;20396;-77
2022/05/22 04:21:58;;;;;;;3.30;2.17;;;;;;;;;;5063410;23;20057;-81
2022/05/22 04:27:10;;;;;;;2.85;2.03;;;;;;;;;;5037254;28;20033;-77
2022/05/22 04:29:36;;;;;;;3.33;2.22;;;;;;;;;;5037232;28;20360;-76
2022/05/22 04:32:03;;;;;;;3.47;2.03;;;;;;;;;;5037178;28;20491;-76
2022/05/22 04:34:40;;;;;;;3.40;1.90;;;;;;;;;;5037123;28;20391;-76
2022/05/22 04:37:09;;;;;;;2.00;1.67;;;;;;;;;;5037398;28;20511;-77
2022/05/22 04:39:42;;;;;;;2.10;1.90;;;;;;;;;;5037047;28;20471;-77
2022/05/22 04:42:08;;;;;;;2.42;1.67;;;;;;;;;;5037515;28;20099;-77
2022/05/22 04:44:34;;;;;;;2.05;1.48;;;;;;;;;;5036986;28;20452;-77
2022/05/22 04:47:24;;;;;;;;;;;;;;;;;;5037631;28;20116;-77
2022/05/22 04:50:22;;;;;;;2.03;1.35;;;;;;;;;;5042991;28;20405;-76
2022/05/22 04:53:06;;;;;;;2.47;1.23;;;;;;;;;;5054909;28;20087;-76
2022/05/22 04:55:48;;;;;;;2.00;1.58;;;;;;;;;;5023103;28;20033;-76
2022/05/22 04:58:16;;;;;;;3.25;1.70;;;;;;;;;;5036946;28;20451;-77
2022/05/22 05:00:41;;;;;;;1.70;1.50;;;;;;;;;;5036046;28;20041;-77
2022/05/22 05:03:10;;;;;;;3.85;1.10;;;;;;;;;;5036845;28;20029;-77
2022/05/22 05:05:36;;;;;;;2.78;1.48;;;;;;;;;;5036829;28;20032;-77
2022/05/22 05:08:02;;;;;;;3.05;1.40;;;;;;;;;;5036501;28;20087;-77
2022/05/22 05:10:47;;;;;;;2.95;1.27;;;;;;;;;;5039010;28;20087;-76
2022/05/22 05:13:19;;;;;;;2.55;1.17;;;;;;;;;;5020793;28;20069;-76
2022/05/22 05:15:45;;;;;;;4.15;1.30;;;;;;;;;;5036657;28;20048;-77
2022/05/22 05:18:16;;;;;;;2.83;1.20;;;;;;;;;;5036357;28;20052;-76
2022/05/22 05:20:45;;;;;;;1.95;1.20;;;;;;;;;;5036798;28;20464;-76
2022/05/22 05:23:10;;;;;;;3.20;1.15;;;;;;;;;;5036042;28;20102;-76
2022/05/22 05:25:46;;;;;;;3.03;1.13;;;;;;;;;;5036196;28;20494;-76
2022/05/22 05:28:12;;;;;;;1.42;1.10;;;;;;;;;;5036211;28;20037;-76
2022/05/22 05:30:37;;;;;;;2.55;1.10;;;;;;;;;;5019625;28;20526;-76
2022/05/22 05:33:03;;;;;;;2.03;1.20;;;;;;;;;;5036105;28;20044;-76
2022/05/22 05:35:51;;;;;;;2.03;1.00;;;;;;;;;;5016803;28;20415;-77
2022/05/22 05:38:33;;;;;;;1.63;1.00;;;;;;;;;;5036245;28;20033;-76
2022/05/22 05:41:02;;;;;;;1.83;0.90;;;;;;;;;;5036137;28;20045;-76
2022/05/22 05:43:27;;;;;;;1.45;0.70;;;;;;;;;;5035950;28;20029;-77
2022/05/22 05:45:52;;;;;;;2.55;1.20;;;;;;;;;;5035943;28;20032;-77
2022/05/22 05:48:18;;;;;;;1.98;0.98;;;;;;;;;;5035907;28;20475;-77
2022/05/22 05:50:55;;;;;;;0.75;0.75;;;;;;;;;;5037224;28;20072;-77
2022/05/22 05:53:32;;;;;;;1.63;1.10;;;;;;;;;;5020979;28;20043;-76
2022/05/22 05:56:39;;;;;;;1.48;0.90;;;;;;;;;;4973461;28;20125;-76
2022/05/22 05:59:17;;;;;;;1.80;1.23;;;;;;;;;;4957018;28;20077;-77
2022/05/22 06:01:46;;;;;;;1.35;1.00;;;;;;;;;;4988485;28;20045;-76
2022/05/22 06:04:12;;;;;;;1.58;1.00;;;;;;;;;;5035919;28;20041;-77
2022/05/22 06:06:37;;;;;;;1.10;1.00;;;;;;;;;;5035640;28;20040;-76
2022/05/22 06:09:03;;;;;;;2.58;0.82;;;;;;;;;;5035931;28;20494;-77
2022/05/22 06:11:45;;;;;;;1.63;0.77;;;;;;;;;;5036005;28;20075;-77
2022/05/22 06:14:17;;;;;;;1.27;1.08;;;;;;;;;;5053760;23;20045;-76
2022/05/22 06:16:43;;;;;;;2.75;0.70;;;;;;;;;;5087315;22;20414;-77
2022/05/22 06:19:13;;;;;;;2.92;0.85;;;;;;;;;;5079960;28;20051;-76
2022/05/22 06:21:42;;;;;;;1.38;0.75;;;;;;;;;;5079568;28;20047;-76
2022/05/22 06:24:09;;;;;;;1.58;0.85;;;;;;;;;;5079603;28;20028;-77
2022/05/22 06:27:05;;;;;;;1.40;0.70;;;;;;;;;;5067346;28;20028;-77
2022/05/22 06:29:49;;;;;;;2.53;0.82;;;;;;;;;;5098498;28;20071;-76
2022/05/22 06:32:26;;;;;;;0.95;0.70;;;;;;;;;;5097572;28;20067;-76
2022/05/22 06:35:11;;;;;;;3.13;0.82;;;;;;;;;;5098348;28;20531;-77
2022/05/22 06:37:53;;;;;;;1.67;0.73;;;;;;;;;;5081887;28;20111;-76
2022/05/22 06:40:39;;;;;;;2.45;0.80;;;;;;;;;;5097335;28;20043;-76
2022/05/22 06:43:37;;;;;;;1.38;0.80;;;;;;;;;;5079517;28;20036;-76
2022/05/22 06:46:27;;;;;;;2.15;0.70;;;;;;;;;;5068368;28;20128;-77
2022/05/22 06:49:22;;;;;;;1.88;0.82;;;;;;;;;;5060020;28;20048;-77
2022/05/22 06:52:01;;;;;;;1.17;0.63;;;;;;;;;;5078967;28;20062;-76
2022/05/22 06:54:41;;;;;;;3.38;0.80;;;;;;;;;;5078938;28;20040;-77
2022/05/22 06:57:33;;;;;;;0.80;0.68;;;;;;;;;;5097138;28;20032;-76
2022/05/22 07:00:12;;;;;;;3.88;0.98;;;;;;;;;;5078937;28;20079;-76
2022/05/22 07:02:43;;;;;;;1.48;0.75;;;;;;;;;;5097560;28;20490;-76
2022/05/22 07:05:41;;;;;;;1.27;0.55;;;;;;;;;;5078754;28;20025;-77
2022/05/22 07:08:34;;;;;;;2.53;0.80;;;;;;;;;;5079620;28;20109;-77
2022/05/22 07:14:21;;;;;;;2.28;0.70;;;;;;;;;;5097147;28;20038;-76
2022/05/22 07:17:06;;;;;;;2.78;0.70;;;;;;;;;;5096513;28;20110;-77
2022/05/22 07:19:41;;;;;;;1.17;0.57;;;;;;;;;;5062959;28;20040;-77
2022/05/22 07:22:25;;;;;;;2.17;0.70;;;;;;;;;;5096728;28;20398;-77
2022/05/22 07:25:00;;;;;;;1.20;0.70;;;;;;;;;;5078417;28;20492;-77
2022/05/22 07:27:31;;;;;;;0.90;0.60;;;;;;;;;;5078443;28;20032;-77
2022/05/22 07:30:10;;;;;;;1.90;0.60;;;;;;;;;;5078404;28;20039;-77
2022/05/22 07:33:11;;;;;;;;;;;;;;;;;;5014890;28;20034;-76
2022/05/22 07:35:57;;;;;;;3.35;0.70;;;;;;;;;;5090209;28;19908;-77
2022/05/22 07:38:25;;;;;;;1.65;0.52;;;;;;;;;;5096394;28;20111;-76
2022/05/22 07:41:09;;;;;;;1.90;0.60;;;;;;;;;;5097015;28;20031;-77
2022/05/22 07:44:05;;;;;;;2.67;0.90;;;;;;;;;;5078070;28;20035;-77
2022/05/22 07:46:43;;;;;;;2.38;0.88;;;;;;;;;;5080442;28;20394;-77
2022/05/22 07:52:17;;;;;;;2.40;0.90;;;;;;;;;;5096453;28;20105;-77
2022/05/22 07:55:02;;;;;;;2.30;0.98;;;;;;;;;;5063894;28;20032;-77
2022/05/22 07:57:48;;;;;;;1.08;0.50;;;;;;;;;;5096587;28;20135;-77
2022/05/22 08:00:51;;;;;;;2.45;0.55;;;;;;;;;;5072061;28;20032;-77
2022/05/22 08:03:36;;;;;;;5.82;0.60;;;;;;;;;;5095625;28;20371;-77
2022/05/22 08:06:01;;;;;;;1.30;0.70;;;;;;;;;;5061584;28;20079;-77
2022/05/22 08:08:31;;;;;;;1.10;0.60;;;;;;;;;;5077853;28;20462;-77
2022/05/22 08:11:03;;;;;;;2.10;0.80;;;;;;;;;;5062345;28;20044;-77
2022/05/22 08:13:41;;;;;;;1.60;0.63;;;;;;;;;;5077794;28;20092;-77
2022/05/22 08:16:07;;;;;;;1.73;0.77;;;;;;;;;;5074120;28;20120;-77
2022/05/22 08:18:36;;;;;;;1.73;0.80;;;;;;;;;;5058751;28;20041;-77
2022/05/22 08:21:02;;;;;;;1.17;0.82;;;;;;;;;;5061040;28;20040;-77
2022/05/22 08:23:28;;;;;;;3.83;0.70;;;;;;;;;;5095727;28;20028;-77
2022/05/22 08:26:19;;;;;;;1.38;0.70;;;;;;;;;;5091459;28;20077;-77
2022/05/22 08:28:45;;;;;;;1.88;0.80;;;;;;;;;;5078004;28;20355;-77
2022/05/22 08:31:11;;;;;;;3.80;0.70;;;;;;;;;;5077223;28;20034;-77
2022/05/22 08:33:38;;;;;;;0.77;0.68;;;;;;;;;;5077172;28;20040;-77
2022/05/22 08:36:07;;;;;;;1.58;0.75;;;;;;;;;;5076304;28;20077;-77
2022/05/22 08:38:33;;;;;;;0.80;0.68;;;;;;;;;;5095438;28;20040;-77
2022/05/22 08:41:18;;;;;;;3.73;0.93;;;;;;;;;;5095345;28;20519;-77
2022/05/22 08:43:46;;;;;;;0.77;0.40;;;;;;;;;;5094781;28;20295;-77
2022/05/22 08:46:11;;;;;;;1.25;0.65;;;;;;;;;;5095050;28;20106;-77
2022/05/22 08:49:06;;;;;;;1.83;0.50;;;;;;;;;;5076788;28;20060;-77
2022/05/22 08:51:40;;;;;;;2.33;0.68;;;;;;;;;;5055343;28;20452;-77
2022/05/22 08:54:32;;;;;;;1.00;0.55;;;;;;;;;;5095184;28;20067;-77
2022/05/22 08:59:42;;;;;;;0.90;0.60;;;;;;;;;;5076508;28;20068;-77
2022/05/22 09:02:26;;;;;;;1.40;0.57;;;;;;;;;;5094943;28;20032;-77
2022/05/22 09:05:01;;;;;;;0.77;0.57;;;;;;;;;;5076522;28;20043;-77
2022/05/22 09:07:36;;;;;;;0.73;0.50;;;;;;;;;;5076531;28;20044;-77
2022/05/22 09:10:04;;;;;;;1.73;0.80;;;;;;;;;;5094853;28;20039;-77
2022/05/22 09:12:52;;;;;;;0.95;0.52;;;;;;;;;;5094852;28;20016;-77
2022/05/22 09:15:28;;;;;;;1.90;0.65;;;;;;;;;;5094668;28;20165;-77
2022/05/22 09:17:57;;;;;;;1.10;0.50;;;;;;;;;;5094736;28;20050;-77
2022/05/22 09:20:43;;;;;;;0.60;0.40;;;;;;;;;;5094633;28;20047;-77
2022/05/22 09:23:29;;;;;;;2.47;0.50;;;;;;;;;;5094616;28;20135;-77
2022/05/22 09:26:20;;;;;;;1.05;0.70;;;;;;;;;;5094924;28;20032;-77
2022/05/22 09:29:07;;;;;;;0.50;0.45;;;;;;;;;;5038463;28;20044;-77
2022/05/22 09:31:47;;;;;;;0.60;0.50;;;;;;;;;;5094527;28;20040;-77
2022/05/22 09:34:28;;;;;;;0.75;0.43;;;;;;;;;;5094494;28;20036;-77
2022/05/22 09:36:56;;;;;;;0.47;0.47;;;;;;;;;;5094717;28;20028;-77
2022/05/22 09:39:40;;;;;;;0.57;0.50;;;;;;;;;;5075933;28;20390;-77
2022/05/22 09:42:21;;;;;;;0.73;0.50;;;;;;;;;;5075874;28;20039;-77
2022/05/22 09:44:46;;;;;;;1.35;0.75;;;;;;;;;;5094335;28;20036;-77
2022/05/22 09:47:38;;;;;;;0.63;0.47;;;;;;;;;;5093867;28;20035;-77
2022/05/22 09:50:08;;;;;;;1.77;0.60;;;;;;;;;;5076178;28;20737;-77
2022/05/22 09:52:47;;;;;;;0.45;0.40;;;;;;;;;;5094261;28;20040;-77
2022/05/22 09:55:39;;;;;;;1.10;0.65;;;;;;;;;;5075787;28;20040;-77
2022/05/22 09:58:10;;;;;;;2.05;0.50;;;;;;;;;;5055443;28;20443;-77
2022/05/22 10:00:42;;;;;;;0.82;0.60;;;;;;;;;;5094282;28;20036;-77
2022/05/22 10:03:25;;;;;;;0.55;0.55;;;;;;;;;;5075710;28;20032;-77
2022/05/22 10:06:11;;;;;;;1.00;0.68;;;;;;;;;;5094011;28;20107;-77
2022/05/22 10:08:42;;;;;;;0.60;0.60;;;;;;;;;;5075600;28;20042;-77
2022/05/22 10:11:08;;;;;;;1.63;0.60;;;;;;;;;;5075926;28;20113;-77
2022/05/22 10:13:33;;;;;;;0.80;0.50;;;;;;;;;;5093652;28;20028;-77
2022/05/22 10:16:08;;;;;;;1.15;0.68;;;;;;;;;;5075617;28;20052;-77
2022/05/22 10:18:36;;;;;;;0.88;0.57;;;;;;;;;;5093907;28;20056;-77
2022/05/22 10:21:07;;;;;;;1.38;0.70;;;;;;;;;;5094071;28;20028;-77
2022/05/22 10:23:33;;;;;;;0.70;0.68;;;;;;;;;;5093864;28;20028;-77
2022/05/22 10:26:01;;;;;;;0.82;0.52;;;;;;;;;;5093526;28;20032;-77
2022/05/22 10:28:32;;;;;;;0.70;0.52;;;;;;;;;;5093789;28;20028;-77
2022/05/22 10:31:09;;;;;;;2.33;0.60;;;;;;;;;;5075785;28;20049;-77
2022/05/22 10:33:41;;;;;;;0.47;0.45;;;;;;;;;;5093534;28;20032;-77
2022/05/22 10:36:12;;;;;;;1.88;0.60;;;;;;;;;;5093509;28;20122;-77
2022/05/22 10:38:40;;;;;;;4.93;0.40;;;;;;;;;;5075348;28;20043;-77
2022/05/22 10:44:15;;;;;;;0.80;0.47;;;;;;;;;;5055568;28;20394;-77
2022/05/22 10:46:48;;;;;;;0.98;0.40;;;;;;;;;;5075382;28;20031;-77
2022/05/22 10:49:13;;;;;;;0.75;0.50;;;;;;;;;;5093648;28;20048;-77
2022/05/22 10:51:38;;;;;;;0.80;0.40;;;;;;;;;;5093319;28;20024;-77
2022/05/22 10:54:04;;;;;;;1.20;0.50;;;;;;;;;;5093305;28;20032;-77
2022/05/22 10:56:30;;;;;;;1.35;0.52;;;;;;;;;;5075301;28;20028;-77
2022/05/22 10:58:57;;;;;;;0.88;0.50;;;;;;;;;;5095459;28;20096;-77
2022/05/22 11:01:27;;;;;;;1.10;0.30;;;;;;;;;;5097281;28;20451;-77
2022/05/22 11:04:02;;;;;;;1.58;0.50;;;;;;;;;;5079223;28;20033;-77
2022/05/22 11:06:27;;;;;;;1.05;0.60;;;;;;;;;;5096982;28;20042;-77
2022/05/22 11:08:55;;;;;;;0.88;0.57;;;;;;;;;;5097230;28;20107;-77
2022/05/22 11:11:23;;;;;;;0.70;0.52;;;;;;;;;;5079176;28;20036;-77
2022/05/22 11:13:49;;;;;;;1.02;0.60;;;;;;;;;;5097154;28;20034;-77
2022/05/22 11:16:19;;;;;;;1.67;0.60;;;;;;;;;;5097420;28;20051;-77
2022/05/22 11:18:45;;;;;;;0.70;0.70;;;;;;;;;;5097361;28;20032;-77
2022/05/22 11:21:28;;;;;;;1.63;0.88;;;;;;;;;;5078903;28;20060;-77
2022/05/22 11:24:13;;;;;;;1.25;0.57;;;;;;;;;;5096981;28;20039;-77
2022/05/22 11:26:47;;;;;;;1.83;0.60;;;;;;;;;;5096909;28;20040;-77
2022/05/22 11:29:13;;;;;;;1.77;0.52;;;;;;;;;;5097088;28;20115;-77
2022/05/22 11:31:47;;;;;;;1.75;0.50;;;;;;;;;;5096554;28;20095;-77
2022/05/22 11:34:31;;;;;;;1.35;0.60;;;;;;;;;;5078684;28;20040;-77
2022/05/22 11:37:12;;;;;;;1.00;0.60;;;;;;;;;;5096715;28;20036;-77
2022/05/22 11:39:56;;;;;;;0.45;0.40;;;;;;;;;;5096942;28;20036;-77
2022/05/22 11:42:34;;;;;;;0.45;0.43;;;;;;;;;;5078471;28;20044;-77
2022/05/22 11:45:18;;;;;;;1.73;0.50;;;;;;;;;;5096502;28;20118;-77
2022/05/22 11:47:55;;;;;;;0.43;0.40;;;;;;;;;;5096761;28;20032;-77
2022/05/22 11:50:26;;;;;;;1.10;0.40;;;;;;;;;;5096390;28;20055;-77
2022/05/22 11:52:58;;;;;;;0.75;0.55;;;;;;;;;;5096398;28;20043;-77
2022/05/22 11:55:38;;;;;;;1.27;0.50;;;;;;;;;;5096074;28;20497;-77
2022/05/22 11:58:12;;;;;;;3.28;0.50;;;;;;;;;;5077926;28;20032;-77
2022/05/22 12:00:47;;;;;;;1.30;0.35;;;;;;;;;;5077907;28;20040;-77
2022/05/22 12:03:34;;;;;;;0.80;0.40;;;;;;;;;;5096131;28;20036;-77
2022/05/22 12:06:02;;;;;;;1.05;0.50;;;;;;;;;;5096130;28;20036;-77
2022/05/22 12:08:33;;;;;;;0.43;0.40;;;;;;;;;;5078049;28;20447;-77
2022/05/22 12:11:04;;;;;;;1.08;0.68;;;;;;;;;;5094473;28;20040;-77
2022/05/22 12:13:45;;;;;;;0.60;0.40;;;;;;;;;;5077707;28;20036;-77
2022/05/22 12:16:22;;;;;;;0.63;0.38;;;;;;;;;;5077627;28;20048;-77
2022/05/22 12:18:51;;;;;;;0.88;0.40;;;;;;;;;;5078154;28;20216;-77
2022/05/22 12:21:16;;;;;;;2.67;0.30;;;;;;;;;;5078017;28;20028;-77
2022/05/22 12:24:05;;;;;;;0.57;0.40;;;;;;;;;;5077725;28;20093;-77
2022/05/22 12:26:31;;;;;;;0.88;0.40;;;;;;;;;;5095454;28;20044;-77
2022/05/22 12:29:02;;;;;;;0.40;0.40;;;;;;;;;;5095972;28;20046;-77
2022/05/22 12:31:33;;;;;;;0.88;0.50;;;;;;;;;;5095691;28;20406;-77
2022/05/22 12:34:05;;;;;;;0.52;0.50;;;;;;;;;;5095318;28;20082;-77
2022/05/22 12:36:32;;;;;;;0.57;0.32;;;;;;;;;;5095268;28;20040;-77
2022/05/22 12:39:05;;;;;;;1.48;0.50;;;;;;;;;;5077057;28;20032;-77
2022/05/22 12:41:39;;;;;;;0.90;0.70;;;;;;;;;;5060437;28;20392;-77
2022/05/22 12:44:05;;;;;;;2.00;0.40;;;;;;;;;;5095688;28;20032;-77
2022/05/22 12:46:32;;;;;;;0.38;0.38;;;;;;;;;;5095088;28;20046;-77
2022/05/22 12:49:06;;;;;;;0.70;0.30;;;;;;;;;;5095036;28;20039;-77
2022/05/22 12:51:37;;;;;;;0.52;0.40;;;;;;;;;;5077216;28;20044;-78
2022/05/22 12:54:08;;;;;;;0.30;0.30;;;;;;;;;;5095222;28;20085;-77
2022/05/22 12:56:34;;;;;;;0.77;0.40;;;;;;;;;;5076728;28;20040;-77
2022/05/22 12:59:03;;;;;;;1.80;0.50;;;;;;;;;;5094846;28;20036;-77
2022/05/22 13:01:32;;;;;;;0.38;0.30;;;;;;;;;;5095009;28;20736;-77
2022/05/22 13:04:00;;;;;;;1.27;0.50;;;;;;;;;;5059985;28;20032;-77
2022/05/22 13:06:30;;;;;;;1.30;0.50;;;;;;;;;;5094729;28;20478;-77
2022/05/22 13:09:06;;;;;;;2.13;0.70;;;;;;;;;;5094718;28;20115;-77
2022/05/22 13:11:38;;;;;;;1.02;0.40;;;;;;;;;;5094932;28;20063;-77
2022/05/22 13:14:04;;;;;;;0.50;0.40;;;;;;;;;;5094870;28;20035;-77
2022/05/22 13:16:32;;;;;;;2.10;0.50;;;;;;;;;;5076196;28;20051;-77
2022/05/22 13:18:57;;;;;;;1.45;0.70;;;;;;;;;;5094761;28;20074;-77
2022/05/22 13:21:30;;;;;;;0.60;0.60;;;;;;;;;;5094248;28;20059;-77
2022/05/22 13:24:01;;;;;;;1.58;0.65;;;;;;;;;;5094639;28;20258;-77
2022/05/22 13:26:28;;;;;;;1.75;0.68;;;;;;;;;;5094333;28;20036;-77
2022/05/22 13:29:00;;;;;;;2.92;0.50;;;;;;;;;;5094584;28;20079;-77
2022/05/22 13:31:32;;;;;;;1.15;0.47;;;;;;;;;;5072729;28;20052;-78
2022/05/22 13:34:18;;;;;;;0.80;0.43;;;;;;;;;;5094160;28;20047;-77
2022/05/22 13:36:55;;;;;;;1.08;0.57;;;;;;;;;;5073983;28;20398;-77
2022/05/22 13:39:39;;;;;;;1.33;0.50;;;;;;;;;;5094380;28;20036;-77
2022/05/22 13:42:05;;;;;;;0.80;0.60;;;;;;;;;;5055902;28;20037;-77
2022/05/22 13:44:36;;;;;;;0.50;0.50;;;;;;;;;;5072575;28;20445;-77
2022/05/22 13:47:13;;;;;;;1.13;0.43;;;;;;;;;;5086352;28;20262;-77
2022/05/22 13:49:45;;;;;;;0.50;0.47;;;;;;;;;;5073375;28;20097;-77
2022/05/22 13:54:59;;;;;;;0.80;0.60;;;;;;;;;;5094472;28;20123;-77
2022/05/22 13:57:27;;;;;;;0.73;0.55;;;;;;;;;;5093881;28;20537;-78
2022/05/22 14:00:00;;;;;;;0.52;0.40;;;;;;;;;;5094161;28;20040;-77
2022/05/22 14:02:45;;;;;;;1.10;0.60;;;;;;;;;;5094004;28;20404;-77
2022/05/22 14:05:11;;;;;;;0.43;0.40;;;;;;;;;;5093222;28;20440;-77
2022/05/22 14:07:40;;;;;;;2.90;0.50;;;;;;;;;;5094051;28;20050;-77
2022/05/22 14:10:05;;;;;;;0.60;0.50;;;;;;;;;;5093767;28;20470;-77
2022/05/22 14:12:34;;;;;;;0.98;0.50;;;;;;;;;;5094032;28;20410;-78
2022/05/22 14:15:09;;;;;;;3.13;0.70;;;;;;;;;;5093707;28;20436;-77
2022/05/22 14:17:36;;;;;;;1.42;0.60;;;;;;;;;;5093484;28;20040;-77
2022/05/22 14:20:08;;;;;;;0.73;0.50;;;;;;;;;;5093951;28;20123;-77
2022/05/22 14:22:33;;;;;;;0.75;0.40;;;;;;;;;;5093560;28;20040;-77
2022/05/22 14:25:00;;;;;;;1.33;0.50;;;;;;;;;;5093616;28;20417;-77
2022/05/22 14:27:26;;;;;;;2.08;0.57;;;;;;;;;;5094142;28;20036;-77
2022/05/22 14:29:51;;;;;;;0.60;0.50;;;;;;;;;;5074666;28;20031;-77
2022/05/22 14:32:18;;;;;;;1.60;0.60;;;;;;;;;;5072056;28;20275;-77
2022/05/22 14:34:45;;;;;;;0.50;0.50;;;;;;;;;;5077157;28;20052;-77
2022/05/22 14:37:11;;;;;;;2.33;0.60;;;;;;;;;;5076119;28;20087;-77
2022/05/22 14:39:45;;;;;;;0.90;0.50;;;;;;;;;;5094803;28;20059;-77
2022/05/22 14:42:11;;;;;;;0.90;0.38;;;;;;;;;;5097413;28;20032;-77
2022/05/22 14:44:37;;;;;;;0.80;0.70;;;;;;;;;;5076382;28;20075;-77
2022/05/22 14:47:04;;;;;;;0.95;0.60;;;;;;;;;;5075799;28;20449;-77
2022/05/22 14:49:35;;;;;;;0.50;0.50;;;;;;;;;;5075856;28;20060;-77
2022/05/22 14:52:15;;;;;;;0.88;0.60;;;;;;;;;;5089487;28;20032;-77
2022/05/22 14:54:54;;;;;;;0.52;0.50;;;;;;;;;;5097544;28;20059;-77
2022/05/22 14:57:25;;;;;;;0.57;0.50;;;;;;;;;;5097482;28;20036;-77
2022/05/22 14:59:53;;;;;;;0.50;0.50;;;;;;;;;;5097149;28;20040;-77
2022/05/22 15:02:33;;;;;;;1.13;0.43;;;;;;;;;;5097338;28;20036;-77
2022/05/22 15:05:01;;;;;;;1.45;0.60;;;;;;;;;;5078894;28;20039;-77
2022/05/22 15:07:27;;;;;;;1.38;0.50;;;;;;;;;;5078914;28;20363;-77
2022/05/22 15:09:59;;;;;;;1.40;0.50;;;;;;;;;;5097121;28;20047;-77
2022/05/22 15:12:26;;;;;;;0.50;0.40;;;;;;;;;;5097506;28;20036;-77
2022/05/22 15:14:53;;;;;;;0.88;0.60;;;;;;;;;;5061182;28;20029;-77
2022/05/22 15:17:25;;;;;;;0.98;0.60;;;;;;;;;;5075381;28;20119;-77
2022/05/22 15:19:53;;;;;;;0.70;0.55;;;;;;;;;;5096009;28;20452;-77
2022/05/22 15:25:29;;;;;;;1.77;0.60;;;;;;;;;;5097221;28;20032;-77
2022/05/22 15:27:54;;;;;;;0.60;0.45;;;;;;;;;;5078407;28;20043;-77
2022/05/22 15:30:23;;;;;;;3.75;0.68;;;;;;;;;;5096567;28;20408;-77
2022/05/22 15:32:48;;;;;;;1.20;0.60;;;;;;;;;;5060487;28;20102;-77